sensor_id;sensor_type;location;lat;lon;timestamp;pressure;altitude;pressure_sealevel;temperature;humidity
23433;BME280;41331;45.412;10.992;2023-12-14T00:01:20;99796.88;;;7.81;100.00
23433;BME280;41331;45.412;10.992;2023-12-14T00:03:48;99807.69;;;7.81;100.00
23433;BME280;41331;45.412;10.992;2023-12-14T00:06:16;99806.44;;;7.78;100.00
23433;BME280;41331;45.412;10.992;2023-12-14T00:08:44;99804.34;;;7.84;100.00
23433;BME280;41331;45.412;10.992;2023-12-14T00:11:11;99800.38;;;7.82;100.00
23433;BME280;41331;45.412;10.992;2023-12-14T00:13:40;99806.88;;;7.89;100.00
23433;BME280;41331;45.412;10.992;2023-12-14T00:16:08;99812.91;;;7.95;100.00
23433;BME280;41331;45.412;10.992;2023-12-14T00:18:36;99814.84;;;7.94;100.00
23433;BME280;41331;45.412;10.992;2023-12-14T00:21:05;99815.13;;;7.93;100.00
23433;BME280;41331;45.412;10.992;2023-12-14T00:23:36;99821.38;;;7.93;100.00
23433;BME280;41331;45.412;10.992;2023-12-14T00:26:03;99820.56;;;7.93;100.00
23433;BME280;41331;45.412;10.992;2023-12-14T00:28:31;99821.38;;;7.93;100.00
23433;BME280;41331;45.412;10.992;2023-12-14T00:31:01;99821.38;;;7.93;100.00
23433;BME280;41331;45.412;10.992;2023-12-14T00:33:29;99825.78;;;7.98;100.00
23433;BME280;41331;45.412;10.992;2023-12-14T00:35:57;99832.50;;;7.92;100.00
23433;BME280;41331;45.412;10.992;2023-12-14T00:38:25;99833.91;;;7.98;100.00
23433;BME280;41331;45.412;10.992;2023-12-14T00:40:53;99844.91;;;8.01;100.00
23433;BME280;41331;45.412;10.992;2023-12-14T00:43:21;99860.56;;;7.96;100.00
23433;BME280;41331;45.412;10.992;2023-12-14T00:45:49;99852.75;;;7.94;100.00
23433;BME280;41331;45.412;10.992;2023-12-14T00:48:16;99850.22;;;7.89;100.00
23433;BME280;41331;45.412;10.992;2023-12-14T00:50:44;99851.00;;;7.98;100.00
23433;BME280;41331;45.412;10.992;2023-12-14T00:53:12;99853.22;;;7.96;100.00
23433;BME280;41331;45.412;10.992;2023-12-14T00:55:40;99848.31;;;7.90;100.00
23433;BME280;41331;45.412;10.992;2023-12-14T00:58:08;99846.84;;;7.92;100.00
23433;BME280;41331;45.412;10.992;2023-12-14T01:00:36;99851.81;;;7.90;100.00
23433;BME280;41331;45.412;10.992;2023-12-14T01:03:04;99861.19;;;7.93;100.00
23433;BME280;41331;45.412;10.992;2023-12-14T01:05:32;99861.88;;;7.90;100.00
23433;BME280;41331;45.412;10.992;2023-12-14T01:08:00;99856.59;;;7.93;100.00
23433;BME280;41331;45.412;10.992;2023-12-14T01:10:27;99864.91;;;7.88;100.00
23433;BME280;41331;45.412;10.992;2023-12-14T01:12:55;99861.38;;;7.88;100.00
23433;BME280;41331;45.412;10.992;2023-12-14T01:15:23;99870.31;;;7.88;100.00
23433;BME280;41331;45.412;10.992;2023-12-14T01:17:51;99871.13;;;7.89;100.00
23433;BME280;41331;45.412;10.992;2023-12-14T01:20:19;99863.63;;;7.86;100.00
23433;BME280;41331;45.412;10.992;2023-12-14T01:22:46;99876.66;;;7.92;100.00
23433;BME280;41331;45.412;10.992;2023-12-14T01:25:14;99877.63;;;7.88;100.00
23433;BME280;41331;45.412;10.992;2023-12-14T01:27:42;99879.53;;;7.87;100.00
23433;BME280;41331;45.412;10.992;2023-12-14T01:30:10;99879.53;;;7.87;100.00
23433;BME280;41331;45.412;10.992;2023-12-14T01:32:38;99878.75;;;7.87;100.00
23433;BME280;41331;45.412;10.992;2023-12-14T01:35:07;99882.75;;;7.89;100.00
23433;BME280;41331;45.412;10.992;2023-12-14T01:37:35;99885.75;;;7.88;100.00
23433;BME280;41331;45.412;10.992;2023-12-14T01:40:03;99896.75;;;7.91;100.00
23433;BME280;41331;45.412;10.992;2023-12-14T01:42:31;99902.00;;;7.88;100.00
23433;BME280;41331;45.412;10.992;2023-12-14T01:44:59;99903.75;;;7.92;100.00
23433;BME280;41331;45.412;10.992;2023-12-14T01:47:26;99894.03;;;7.91;100.00
23433;BME280;41331;45.412;10.992;2023-12-14T01:49:54;99904.88;;;7.91;100.00
23433;BME280;41331;45.412;10.992;2023-12-14T01:52:22;99908.28;;;7.79;100.00
23433;BME280;41331;45.412;10.992;2023-12-14T01:54:50;99905.22;;;7.81;100.00
23433;BME280;41331;45.412;10.992;2023-12-14T01:57:17;99908.09;;;7.85;100.00
23433;BME280;41331;45.412;10.992;2023-12-14T01:59:46;99915.44;;;7.84;100.00
23433;BME280;41331;45.412;10.992;2023-12-14T02:02:13;99917.34;;;7.75;100.00
23433;BME280;41331;45.412;10.992;2023-12-14T02:04:41;99915.28;;;7.72;100.00
23433;BME280;41331;45.412;10.992;2023-12-14T02:07:09;99914.47;;;7.80;100.00
23433;BME280;41331;45.412;10.992;2023-12-14T02:09:37;99909.75;;;7.60;100.00
23433;BME280;41331;45.412;10.992;2023-12-14T02:12:05;99907.50;;;7.70;100.00
23433;BME280;41331;45.412;10.992;2023-12-14T02:14:33;99898.84;;;7.77;100.00
23433;BME280;41331;45.412;10.992;2023-12-14T02:17:00;99896.31;;;7.72;100.00
23433;BME280;41331;45.412;10.992;2023-12-14T02:19:28;99901.28;;;7.70;100.00
23433;BME280;41331;45.412;10.992;2023-12-14T02:21:57;99895.69;;;7.75;100.00
23433;BME280;41331;45.412;10.992;2023-12-14T02:24:24;99896.31;;;7.81;100.00
23433;BME280;41331;45.412;10.992;2023-12-14T02:26:52;99899.31;;;7.88;100.00
23433;BME280;41331;45.412;10.992;2023-12-14T02:29:30;99898.84;;;7.86;100.00
23433;BME280;41331;45.412;10.992;2023-12-14T02:31:58;99895.16;;;7.90;100.00
23433;BME280;41331;45.412;10.992;2023-12-14T02:34:26;99895.63;;;7.92;100.00
23433;BME280;41331;45.412;10.992;2023-12-14T02:36:57;99893.72;;;7.93;100.00
23433;BME280;41331;45.412;10.992;2023-12-14T02:39:24;99897.25;;;7.93;100.00
23433;BME280;41331;45.412;10.992;2023-12-14T02:41:52;99894.03;;;7.91;100.00
23433;BME280;41331;45.412;10.992;2023-12-14T02:44:20;99899.19;;;7.84;100.00
23433;BME280;41331;45.412;10.992;2023-12-14T02:46:48;99905.06;;;7.77;100.00
23433;BME280;41331;45.412;10.992;2023-12-14T02:49:15;99914.47;;;7.80;100.00
23433;BME280;41331;45.412;10.992;2023-12-14T02:51:43;99911.44;;;7.82;100.00
23433;BME280;41331;45.412;10.992;2023-12-14T02:54:11;99902.06;;;7.79;100.00
23433;BME280;41331;45.412;10.992;2023-12-14T02:56:38;99909.06;;;7.80;100.00
23433;BME280;41331;45.412;10.992;2023-12-14T02:59:06;99910.13;;;7.96;100.00
23433;BME280;41331;45.412;10.992;2023-12-14T03:01:34;99912.44;;;7.60;100.00
23433;BME280;41331;45.412;10.992;2023-12-14T03:04:02;99905.91;;;7.69;100.00
23433;BME280;41331;45.412;10.992;2023-12-14T03:06:30;99910.34;;;7.74;100.00
23433;BME280;41331;45.412;10.992;2023-12-14T03:08:57;99911.78;;;7.80;100.00
23433;BME280;41331;45.412;10.992;2023-12-14T03:11:25;99908.72;;;7.82;100.00
23433;BME280;41331;45.412;10.992;2023-12-14T03:13:53;99906.03;;;7.82;100.00
23433;BME280;41331;45.412;10.992;2023-12-14T03:16:21;99911.94;;;7.75;100.00
23433;BME280;41331;45.412;10.992;2023-12-14T03:18:49;99920.84;;;7.84;100.00
23433;BME280;41331;45.412;10.992;2023-12-14T03:21:20;99918.31;;;7.79;100.00
23433;BME280;41331;45.412;10.992;2023-12-14T03:23:48;99918.47;;;7.74;100.00
23433;BME280;41331;45.412;10.992;2023-12-14T03:26:16;99929.16;;;7.70;100.00
23433;BME280;41331;45.412;10.992;2023-12-14T03:28:44;99932.81;;;7.74;100.00
23433;BME280;41331;45.412;10.992;2023-12-14T03:31:12;99932.66;;;7.62;100.00
23433;BME280;41331;45.412;10.992;2023-12-14T03:33:42;99935.25;;;7.59;100.00
23433;BME280;41331;45.412;10.992;2023-12-14T03:36:10;99937.44;;;7.57;100.00
23433;BME280;41331;45.412;10.992;2023-12-14T03:38:39;99936.34;;;7.49;100.00
23433;BME280;41331;45.412;10.992;2023-12-14T03:41:06;99948.44;;;7.51;100.00
23433;BME280;41331;45.412;10.992;2023-12-14T03:43:34;99951.63;;;7.36;100.00
23433;BME280;41331;45.412;10.992;2023-12-14T03:46:02;99960.88;;;7.18;100.00
23433;BME280;41331;45.412;10.992;2023-12-14T03:48:30;99973.28;;;7.27;100.00
23433;BME280;41331;45.412;10.992;2023-12-14T03:51:02;99965.00;;;7.33;100.00
23433;BME280;41331;45.412;10.992;2023-12-14T03:53:31;99959.56;;;7.07;100.00
23433;BME280;41331;45.412;10.992;2023-12-14T03:55:58;99967.00;;;6.84;100.00
23433;BME280;41331;45.412;10.992;2023-12-14T03:58:26;99971.66;;;7.00;100.00
23433;BME280;41331;45.412;10.992;2023-12-14T04:00:54;99973.81;;;6.72;100.00
23433;BME280;41331;45.412;10.992;2023-12-14T04:03:22;99974.03;;;6.93;100.00
23433;BME280;41331;45.412;10.992;2023-12-14T04:05:49;99977.84;;;6.92;100.00
23433;BME280;41331;45.412;10.992;2023-12-14T04:08:17;99979.88;;;6.78;100.00
23433;BME280;41331;45.412;10.992;2023-12-14T04:10:45;99976.81;;;6.71;100.00
23433;BME280;41331;45.412;10.992;2023-12-14T04:13:13;99989.63;;;6.88;100.00
23433;BME280;41331;45.412;10.992;2023-12-14T04:15:40;99991.13;;;6.63;100.00
23433;BME280;41331;45.412;10.992;2023-12-14T04:18:09;99990.25;;;6.45;100.00
23433;BME280;41331;45.412;10.992;2023-12-14T04:20:36;99991.41;;;6.53;100.00
23433;BME280;41331;45.412;10.992;2023-12-14T04:23:04;99997.56;;;6.44;100.00
23433;BME280;41331;45.412;10.992;2023-12-14T04:25:32;99994.69;;;6.41;100.00
23433;BME280;41331;45.412;10.992;2023-12-14T04:28:00;99997.88;;;6.43;100.00
23433;BME280;41331;45.412;10.992;2023-12-14T04:30:27;99995.03;;;6.48;100.00
23433;BME280;41331;45.412;10.992;2023-12-14T04:32:55;99996.22;;;6.64;100.00
23433;BME280;41331;45.412;10.992;2023-12-14T04:35:23;99999.16;;;6.85;100.00
23433;BME280;41331;45.412;10.992;2023-12-14T04:37:51;100001.81;;;6.68;100.00
23433;BME280;41331;45.412;10.992;2023-12-14T04:40:19;99995.91;;;6.66;100.00
23433;BME280;41331;45.412;10.992;2023-12-14T04:42:46;100007.84;;;6.65;100.00
23433;BME280;41331;45.412;10.992;2023-12-14T04:45:14;100003.28;;;6.43;100.00
23433;BME280;41331;45.412;10.992;2023-12-14T04:47:44;100010.69;;;6.60;100.00
23433;BME280;41331;45.412;10.992;2023-12-14T04:50:12;100019.91;;;6.67;100.00
23433;BME280;41331;45.412;10.992;2023-12-14T04:52:41;100011.59;;;6.55;100.00
23433;BME280;41331;45.412;10.992;2023-12-14T04:55:10;100022.59;;;6.59;100.00
23433;BME280;41331;45.412;10.992;2023-12-14T04:57:37;100029.66;;;6.68;100.00
23433;BME280;41331;45.412;10.992;2023-12-14T05:00:06;100038.69;;;6.64;100.00
23433;BME280;41331;45.412;10.992;2023-12-14T05:02:35;100035.19;;;6.63;100.00
23433;BME280;41331;45.412;10.992;2023-12-14T05:05:03;100042.19;;;6.64;100.00
23433;BME280;41331;45.412;10.992;2023-12-14T05:07:31;100040.47;;;6.68;100.00
23433;BME280;41331;45.412;10.992;2023-12-14T05:09:59;100041.88;;;6.66;100.00
23433;BME280;41331;45.412;10.992;2023-12-14T05:12:26;100040.16;;;6.70;100.00
23433;BME280;41331;45.412;10.992;2023-12-14T05:14:56;100041.06;;;6.65;100.00
23433;BME280;41331;45.412;10.992;2023-12-14T05:17:24;100046.28;;;6.53;100.00
23433;BME280;41331;45.412;10.992;2023-12-14T05:19:52;100051.81;;;6.48;100.00
23433;BME280;41331;45.412;10.992;2023-12-14T05:22:19;100052.28;;;6.50;100.00
23433;BME280;41331;45.412;10.992;2023-12-14T05:24:47;100058.38;;;6.56;100.00
23433;BME280;41331;45.412;10.992;2023-12-14T05:27:15;100058.75;;;6.63;100.00
23433;BME280;41331;45.412;10.992;2023-12-14T05:29:43;100060.28;;;6.55;100.00
23433;BME280;41331;45.412;10.992;2023-12-14T05:32:11;100074.66;;;6.64;100.00
23433;BME280;41331;45.412;10.992;2023-12-14T05:34:38;100075.88;;;6.58;100.00
23433;BME280;41331;45.412;10.992;2023-12-14T05:37:06;100071.69;;;6.52;100.00
23433;BME280;41331;45.412;10.992;2023-12-14T05:39:34;100070.78;;;6.57;100.00
23433;BME280;41331;45.412;10.992;2023-12-14T05:42:02;100084.59;;;6.55;100.00
23433;BME280;41331;45.412;10.992;2023-12-14T05:44:30;100084.88;;;6.45;100.00
23433;BME280;41331;45.412;10.992;2023-12-14T05:46:57;100086.25;;;6.34;100.00
23433;BME280;41331;45.412;10.992;2023-12-14T05:49:25;100098.44;;;6.54;100.00
23433;BME280;41331;45.412;10.992;2023-12-14T05:51:53;100096.16;;;6.47;100.00
23433;BME280;41331;45.412;10.992;2023-12-14T05:54:21;100098.03;;;6.38;100.00
23433;BME280;41331;45.412;10.992;2023-12-14T05:56:48;100096.38;;;6.28;100.00
23433;BME280;41331;45.412;10.992;2023-12-14T05:59:16;100100.63;;;6.43;100.00
23433;BME280;41331;45.412;10.992;2023-12-14T06:01:44;100109.81;;;6.42;100.00
23433;BME280;41331;45.412;10.992;2023-12-14T06:04:12;100114.19;;;6.29;100.00
23433;BME280;41331;45.412;10.992;2023-12-14T06:06:40;100128.31;;;6.26;100.00
23433;BME280;41331;45.412;10.992;2023-12-14T06:09:08;100132.91;;;6.26;100.00
23433;BME280;41331;45.412;10.992;2023-12-14T06:11:36;100143.00;;;6.34;100.00
23433;BME280;41331;45.412;10.992;2023-12-14T06:14:04;100139.50;;;6.33;100.00
23433;BME280;41331;45.412;10.992;2023-12-14T06:16:32;100137.09;;;6.32;100.00
23433;BME280;41331;45.412;10.992;2023-12-14T06:19:00;100138.50;;;6.29;100.00
23433;BME280;41331;45.412;10.992;2023-12-14T06:21:28;100141.66;;;6.22;100.00
23433;BME280;41331;45.412;10.992;2023-12-14T06:23:56;100149.06;;;6.17;100.00
23433;BME280;41331;45.412;10.992;2023-12-14T06:26:25;100157.44;;;6.29;100.00
23433;BME280;41331;45.412;10.992;2023-12-14T06:28:54;100160.72;;;6.26;100.00
23433;BME280;41331;45.412;10.992;2023-12-14T06:31:22;100158.81;;;6.27;100.00
23433;BME280;41331;45.412;10.992;2023-12-14T06:33:50;100171.06;;;6.24;100.00
23433;BME280;41331;45.412;10.992;2023-12-14T06:36:18;100175.78;;;6.18;100.00
23433;BME280;41331;45.412;10.992;2023-12-14T06:38:46;100183.09;;;6.18;100.00
23433;BME280;41331;45.412;10.992;2023-12-14T06:41:23;100177.34;;;5.83;100.00
23433;BME280;41331;45.412;10.992;2023-12-14T06:43:51;100185.94;;;5.99;100.00
23433;BME280;41331;45.412;10.992;2023-12-14T06:46:20;100185.44;;;5.97;100.00
23433;BME280;41331;45.412;10.992;2023-12-14T06:48:48;100189.63;;;5.89;100.00
23433;BME280;41331;45.412;10.992;2023-12-14T06:51:16;100195.94;;;5.85;100.00
23433;BME280;41331;45.412;10.992;2023-12-14T06:53:44;100202.44;;;5.70;100.00
23433;BME280;41331;45.412;10.992;2023-12-14T06:56:13;100209.94;;;5.59;100.00
23433;BME280;41331;45.412;10.992;2023-12-14T06:58:43;100211.16;;;5.53;100.00
23433;BME280;41331;45.412;10.992;2023-12-14T07:01:14;100214.16;;;5.65;100.00
23433;BME280;41331;45.412;10.992;2023-12-14T07:03:43;100221.13;;;5.66;100.00
23433;BME280;41331;45.412;10.992;2023-12-14T07:06:13;100221.66;;;5.68;100.00
23433;BME280;41331;45.412;10.992;2023-12-14T07:08:41;100218.44;;;5.66;100.00
23433;BME280;41331;45.412;10.992;2023-12-14T07:11:09;100218.97;;;5.68;100.00
23433;BME280;41331;45.412;10.992;2023-12-14T07:13:38;100231.16;;;5.66;100.00
23433;BME280;41331;45.412;10.992;2023-12-14T07:16:07;100230.25;;;5.57;100.00
23433;BME280;41331;45.412;10.992;2023-12-14T07:18:40;100233.34;;;5.64;100.00
23433;BME280;41331;45.412;10.992;2023-12-14T07:21:08;100248.06;;;5.58;100.00
23433;BME280;41331;45.412;10.992;2023-12-14T07:23:36;100237.97;;;5.63;100.00
23433;BME280;41331;45.412;10.992;2023-12-14T07:26:04;100241.34;;;5.55;100.00
23433;BME280;41331;45.412;10.992;2023-12-14T07:28:34;100256.44;;;5.70;100.00
23433;BME280;41331;45.412;10.992;2023-12-14T07:31:02;100268.66;;;5.81;100.00
23433;BME280;41331;45.412;10.992;2023-12-14T07:33:30;100270.56;;;5.81;100.00
23433;BME280;41331;45.412;10.992;2023-12-14T07:35:58;100272.88;;;5.74;100.00
23433;BME280;41331;45.412;10.992;2023-12-14T07:38:26;100278.66;;;5.67;100.00
23433;BME280;41331;45.412;10.992;2023-12-14T07:40:53;100276.56;;;5.78;100.00
23433;BME280;41331;45.412;10.992;2023-12-14T07:43:21;100281.03;;;5.82;100.00
23433;BME280;41331;45.412;10.992;2023-12-14T07:45:50;100278.28;;;5.87;100.00
23433;BME280;41331;45.412;10.992;2023-12-14T07:48:18;100285.56;;;5.87;100.00
23433;BME280;41331;45.412;10.992;2023-12-14T07:50:46;100294.16;;;5.89;100.00
23433;BME280;41331;45.412;10.992;2023-12-14T07:53:16;100301.06;;;5.81;100.00
23433;BME280;41331;45.412;10.992;2023-12-14T07:55:43;100317.16;;;5.86;100.00
23433;BME280;41331;45.412;10.992;2023-12-14T07:58:11;100316.16;;;5.82;100.00
23433;BME280;41331;45.412;10.992;2023-12-14T08:00:40;100315.25;;;5.87;100.00
23433;BME280;41331;45.412;10.992;2023-12-14T08:03:08;100316.19;;;5.96;100.00
23433;BME280;41331;45.412;10.992;2023-12-14T08:05:35;100315.19;;;5.92;100.00
23433;BME280;41331;45.412;10.992;2023-12-14T08:08:03;100319.59;;;6.02;100.00
23433;BME280;41331;45.412;10.992;2023-12-14T08:10:31;100309.00;;;6.05;100.00
23433;BME280;41331;45.412;10.992;2023-12-14T08:12:59;100315.00;;;6.16;100.00
23433;BME280;41331;45.412;10.992;2023-12-14T08:15:27;100318.22;;;6.18;100.00
23433;BME280;41331;45.412;10.992;2023-12-14T08:17:55;100324.41;;;6.18;100.00
23433;BME280;41331;45.412;10.992;2023-12-14T08:20:22;100332.00;;;6.30;100.00
23433;BME280;41331;45.412;10.992;2023-12-14T08:22:50;100331.41;;;6.33;100.00
23433;BME280;41331;45.412;10.992;2023-12-14T08:25:18;100339.53;;;6.33;100.00
23433;BME280;41331;45.412;10.992;2023-12-14T08:27:46;100335.94;;;6.24;100.00
23433;BME280;41331;45.412;10.992;2023-12-14T08:30:14;100348.22;;;6.30;100.00
23433;BME280;41331;45.412;10.992;2023-12-14T08:32:42;100349.34;;;6.29;100.00
23433;BME280;41331;45.412;10.992;2023-12-14T08:35:10;100355.84;;;6.28;100.00
23433;BME280;41331;45.412;10.992;2023-12-14T08:37:38;100360.72;;;6.40;100.00
23433;BME280;41331;45.412;10.992;2023-12-14T08:40:07;100365.66;;;6.38;100.00
23433;BME280;41331;45.412;10.992;2023-12-14T08:42:35;100363.44;;;6.40;100.00
23433;BME280;41331;45.412;10.992;2023-12-14T08:45:04;100373.03;;;6.60;100.00
23433;BME280;41331;45.412;10.992;2023-12-14T08:47:34;100371.91;;;6.74;100.00
23433;BME280;41331;45.412;10.992;2023-12-14T08:50:03;100380.00;;;6.74;100.00
23433;BME280;41331;45.412;10.992;2023-12-14T08:52:31;100388.03;;;6.66;100.00
23433;BME280;41331;45.412;10.992;2023-12-14T08:54:59;100382.84;;;6.69;100.00
23433;BME280;41331;45.412;10.992;2023-12-14T08:57:29;100396.56;;;6.73;100.00
23433;BME280;41331;45.412;10.992;2023-12-14T08:59:57;100399.44;;;6.77;100.00
23433;BME280;41331;45.412;10.992;2023-12-14T09:02:24;100406.66;;;6.67;100.00
23433;BME280;41331;45.412;10.992;2023-12-14T09:04:52;100403.94;;;6.67;100.00
23433;BME280;41331;45.412;10.992;2023-12-14T09:07:20;100409.88;;;6.56;100.00
23433;BME280;41331;45.412;10.992;2023-12-14T09:09:48;100404.47;;;6.56;100.00
23433;BME280;41331;45.412;10.992;2023-12-14T09:12:15;100410.56;;;6.75;100.00
23433;BME280;41331;45.412;10.992;2023-12-14T09:14:46;100408.00;;;6.92;100.00
23433;BME280;41331;45.412;10.992;2023-12-14T09:17:13;100417.44;;;6.95;100.00
23433;BME280;41331;45.412;10.992;2023-12-14T09:19:42;100427.44;;;7.08;100.00
23433;BME280;41331;45.412;10.992;2023-12-14T09:22:09;100427.50;;;7.17;100.00
23433;BME280;41331;45.412;10.992;2023-12-14T09:24:37;100435.06;;;7.06;100.00
23433;BME280;41331;45.412;10.992;2023-12-14T09:27:05;100436.25;;;7.14;100.00
23433;BME280;41331;45.412;10.992;2023-12-14T09:29:32;100439.44;;;7.16;100.00
23433;BME280;41331;45.412;10.992;2023-12-14T09:32:00;100441.34;;;7.15;100.00
23433;BME280;41331;45.412;10.992;2023-12-14T09:34:28;100443.97;;;7.07;100.00
23433;BME280;41331;45.412;10.992;2023-12-14T09:36:56;100446.69;;;7.07;100.00
23433;BME280;41331;45.412;10.992;2023-12-14T09:39:24;100447.00;;;7.05;100.00
23433;BME280;41331;45.412;10.992;2023-12-14T09:41:52;100452.25;;;7.24;100.00
23433;BME280;41331;45.412;10.992;2023-12-14T09:44:20;100439.16;;;7.40;100.00
23433;BME280;41331;45.412;10.992;2023-12-14T09:46:48;100454.97;;;7.46;100.00
23433;BME280;41331;45.412;10.992;2023-12-14T09:49:18;100454.19;;;7.46;100.00
23433;BME280;41331;45.412;10.992;2023-12-14T09:51:46;100452.28;;;7.69;100.00
23433;BME280;41331;45.412;10.992;2023-12-14T09:54:14;100458.25;;;7.57;100.00
23433;BME280;41331;45.412;10.992;2023-12-14T09:56:46;100458.19;;;7.48;100.00
23433;BME280;41331;45.412;10.992;2023-12-14T09:59:14;100459.16;;;7.52;100.00
23433;BME280;41331;45.412;10.992;2023-12-14T10:01:43;100462.13;;;7.65;100.00
23433;BME280;41331;45.412;10.992;2023-12-14T10:04:17;100459.03;;;7.58;100.00
23433;BME280;41331;45.412;10.992;2023-12-14T10:06:47;100471.75;;;7.48;100.00
23433;BME280;41331;45.412;10.992;2023-12-14T10:09:22;100464.88;;;7.29;100.00
23433;BME280;41331;45.412;10.992;2023-12-14T10:12:04;100463.09;;;7.46;100.00
23433;BME280;41331;45.412;10.992;2023-12-14T10:14:33;100456.16;;;7.54;100.00
23433;BME280;41331;45.412;10.992;2023-12-14T10:17:20;100466.56;;;7.83;100.00
23433;BME280;41331;45.412;10.992;2023-12-14T10:19:49;100465.94;;;7.86;100.00
23433;BME280;41331;45.412;10.992;2023-12-14T10:22:17;100465.97;;;7.64;100.00
23433;BME280;41331;45.412;10.992;2023-12-14T10:24:49;100471.66;;;7.62;100.00
23433;BME280;41331;45.412;10.992;2023-12-14T10:27:17;100486.31;;;7.61;100.00
23433;BME280;41331;45.412;10.992;2023-12-14T10:29:45;100484.56;;;7.79;100.00
23433;BME280;41331;45.412;10.992;2023-12-14T10:32:14;100473.88;;;7.83;100.00
23433;BME280;41331;45.412;10.992;2023-12-14T10:34:42;100475.31;;;7.80;100.00
23433;BME280;41331;45.412;10.992;2023-12-14T10:37:11;100469.97;;;7.89;100.00
23433;BME280;41331;45.412;10.992;2023-12-14T10:39:42;100479.91;;;8.02;100.00
23433;BME280;41331;45.412;10.992;2023-12-14T10:42:10;100480.00;;;7.88;100.00
23433;BME280;41331;45.412;10.992;2023-12-14T10:44:50;100478.53;;;8.13;100.00
23433;BME280;41331;45.412;10.992;2023-12-14T10:47:23;100482.00;;;8.05;100.00
23433;BME280;41331;45.412;10.992;2023-12-14T10:49:54;100481.44;;;8.17;100.00
23433;BME280;41331;45.412;10.992;2023-12-14T10:52:24;100486.97;;;8.12;100.00
23433;BME280;41331;45.412;10.992;2023-12-14T10:54:58;100487.31;;;8.10;100.00
23433;BME280;41331;45.412;10.992;2023-12-14T10:57:28;100495.44;;;8.10;100.00
23433;BME280;41331;45.412;10.992;2023-12-14T11:00:00;100495.94;;;7.90;100.00
23433;BME280;41331;45.412;10.992;2023-12-14T11:02:38;100499.63;;;7.94;100.00
23433;BME280;41331;45.412;10.992;2023-12-14T11:05:07;100500.66;;;8.07;100.00
23433;BME280;41331;45.412;10.992;2023-12-14T11:07:50;100507.91;;;7.89;100.00
23433;BME280;41331;45.412;10.992;2023-12-14T11:10:42;100508.72;;;7.98;100.00
23433;BME280;41331;45.412;10.992;2023-12-14T11:13:09;100512.97;;;8.13;100.00
23433;BME280;41331;45.412;10.992;2023-12-14T11:15:50;100520.50;;;8.16;100.00
23433;BME280;41331;45.412;10.992;2023-12-14T11:18:19;100520.69;;;8.19;100.00
23433;BME280;41331;45.412;10.992;2023-12-14T11:20:50;100525.66;;;8.26;100.00
23433;BME280;41331;45.412;10.992;2023-12-14T11:25:54;100524.28;;;8.60;100.00
23433;BME280;41331;45.412;10.992;2023-12-14T11:28:27;100528.41;;;8.97;100.00
23433;BME280;41331;45.412;10.992;2023-12-14T11:30:56;100527.31;;;9.06;100.00
23433;BME280;41331;45.412;10.992;2023-12-14T11:33:24;100529.25;;;8.66;100.00
23433;BME280;41331;45.412;10.992;2023-12-14T11:35:55;100526.84;;;8.65;100.00
23433;BME280;41331;45.412;10.992;2023-12-14T11:38:25;100528.25;;;8.62;100.00
23433;BME280;41331;45.412;10.992;2023-12-14T11:40:53;100519.84;;;8.64;100.00
23433;BME280;41331;45.412;10.992;2023-12-14T11:43:21;100535.41;;;8.49;100.00
23433;BME280;41331;45.412;10.992;2023-12-14T11:45:51;100523.75;;;8.49;100.00
23433;BME280;41331;45.412;10.992;2023-12-14T11:48:21;100524.31;;;8.37;100.00
23433;BME280;41331;45.412;10.992;2023-12-14T11:50:49;100523.88;;;8.44;100.00
23433;BME280;41331;45.412;10.992;2023-12-14T11:53:17;100521.72;;;8.63;100.00
23433;BME280;41331;45.412;10.992;2023-12-14T11:55:46;100522.50;;;8.55;100.00
23433;BME280;41331;45.412;10.992;2023-12-14T11:58:15;100523.28;;;8.33;100.00
23433;BME280;41331;45.412;10.992;2023-12-14T12:00:43;100518.88;;;8.37;100.00
23433;BME280;41331;45.412;10.992;2023-12-14T12:03:16;100524.28;;;8.60;100.00
23433;BME280;41331;45.412;10.992;2023-12-14T12:05:48;100513.34;;;8.82;100.00
23433;BME280;41331;45.412;10.992;2023-12-14T12:08:20;100514.03;;;8.56;100.00
23433;BME280;41331;45.412;10.992;2023-12-14T12:10:49;100524.41;;;8.32;100.00
23433;BME280;41331;45.412;10.992;2023-12-14T12:13:19;100525.53;;;8.31;100.00
23433;BME280;41331;45.412;10.992;2023-12-14T12:15:48;100531.91;;;8.49;100.00
23433;BME280;41331;45.412;10.992;2023-12-14T12:18:16;100536.78;;;8.78;100.00
23433;BME280;41331;45.412;10.992;2023-12-14T12:20:45;100537.94;;;8.86;100.00
23433;BME280;41331;45.412;10.992;2023-12-14T12:23:13;100538.38;;;8.70;100.00
23433;BME280;41331;45.412;10.992;2023-12-14T12:25:41;100548.47;;;8.47;100.00
23433;BME280;41331;45.412;10.992;2023-12-14T12:28:09;100540.44;;;8.42;100.00
23433;BME280;41331;45.412;10.992;2023-12-14T12:30:37;100551.53;;;8.54;100.00
23433;BME280;41331;45.412;10.992;2023-12-14T12:33:08;100544.31;;;8.81;100.00
23433;BME280;41331;45.412;10.992;2023-12-14T12:35:36;100540.41;;;8.65;100.00
23433;BME280;41331;45.412;10.992;2023-12-14T12:38:04;100544.66;;;8.48;100.00
23433;BME280;41331;45.412;10.992;2023-12-14T12:40:32;100533.34;;;8.55;100.00
23433;BME280;41331;45.412;10.992;2023-12-14T12:43:01;100534.22;;;8.42;100.00
23433;BME280;41331;45.412;10.992;2023-12-14T12:45:29;100535.34;;;8.41;100.00
23433;BME280;41331;45.412;10.992;2023-12-14T12:48:00;100538.25;;;8.44;100.00
23433;BME280;41331;45.412;10.992;2023-12-14T12:50:28;100548.84;;;8.63;100.00
23433;BME280;41331;45.412;10.992;2023-12-14T12:52:56;100547.72;;;8.55;100.00